Aberdeen, California
Current Conditions -  °F | °C
As of 12:56 AM on Monday 24 Nov 2014 (Local Time) from KBIH Reporting Station
Clear Clear  
Wind Chill: 22°   Ceiling: Unl
Heat Index: 28°   Visibility: 10mi
Dew Point:   Wind: 6mph
Humidity: 30%   Direction: 300°WNW
Pressure: 30.31"   Gusts: NA
Location:  36.9237°N, 117.897°W
Report Text: KBIH 240856Z AUTO 30005KT 10SM CLR M02/M18 A3031 RMK AO2 SLP256 T10221178 51007
Loading
Personal Weather Stations






























Interactive Weather Map New forecast layout! Learn more

10-Day Weather Forecast

Advertisements
Track Severe Weather on mobile